SLET/SRZ METAR and TAF weather

Enter ICAO airport designator
Station Type Date Time Source
SLET METAR 2020/01/21 15:31 UTC NOAA

SLET 211531Z 32017G30KT 9999 SCT009 BKN017 29/24 Q1008


Station Type Date Time Source
SLET Decoded METAR 2020/01/21 15:31 UTC NOAA

Santa Cruz / El Trompillo, Bolivia (SLET) 17-48S 063-11W 414M
Jan 21, 2020 - 10:31 AM EST / 2020.01.21 1531 UTC
Wind: from the NW (320 degrees) at 20 MPH (17 KT) gusting to 35 MPH (30 KT):0
Visibility: greater than 7 mile(s):0
Sky conditions: mostly cloudy
Temperature: 84 F (29 C)
Dew Point: 75 F (24 C)
Relative Humidity: 74%
Pressure (altimeter): 29.77 in. Hg (1008 hPa)
ob: SLET 211531Z 32017G30KT 9999 SCT009 BKN017 29/24 Q1008
cycle: 15

Station Type Date Time Source
SLET TAF 2020/01/21 12:45 UTC NOAA

TAF SLET 211045Z 2112/2212 33010KT 9999 BKN010 TX35/2119Z TN22/2210Z
BECMG 2114/2116 33015G25KT SCT015 BKN017 FEW0025TCU
BECMG 2122/2124 33010KT SCT015
FM220500 VRB02KT 5000 TSRA BKN010 FEW030CB

Example: see airport list